الصفحة الرئيسية
METAR-TAF:

METAR-TAF

مطار :

Butterworth, ماليزيا

دائرة عرض: 05-27-58N, خط طول: 100-23-28E, ارتفاع: 2 متر

مراقبة الطقس الحالي

تاريخ ووقت الإصدار 1ساعة و 13 دقيقة قبل الساعة 09:00UTC
ريح 8 عقدة من الغرب/الشمال الغربي, الاتجاه يتراوح بين الغرب/الجنوب الغربي و الشمال
درجة الحرارة 30°درجة مئوية
الرطوبة 75%
ضغط 1006 hPa
الرؤية 10 كم أو أكثر
غيوم قليلة على ارتفاع 2000 قدم

METAR: WMKB 260900Z 30008KT 240V350 9999 FEW020 30/25 Q1006 NOSIG

زمن: 18:13 (10:13 UTC)

توقعات

تاريخ ووقت الإصدار 5ساعات و 13 دقيقة قبل الساعة 05:00UTC
التوقعات صالحة من26 الساعة 06 UTC إلى 27 الساعة 06 UTC
ريح 7 عقدة من الغرب/الشمال الغربي
الرؤية 10 كم أو أكثر
غيوم قليلة على ارتفاع 2000 قدم
أصبح
من 26 الساعة 12 UTC إلى 26 الساعة 14 UTC
ريح 2 عقدةمن اتجاهات متغيرة
الرؤية: 8000 متر
غيوم قليلة على ارتفاع 2400 قدم

TAF: WMKB 260500Z 2606/2706 29007KT 9999 FEW020 BECMG 2612/2614 VRB02KT 8000 FEW024

أرصاد الطقس والتوقعات من أكثر من 4000 مطار (تقارير الطقس للمطار METAR والتنبؤ بالطقس بالمطارTAF).

المحطات المتاحة هي النقط الصفراء والحمراء على الخريطة.

حرك المؤشر فوق النقطة لمعرفة اسم المحطة.

ثم انقر لمعرفة أرصاد وتوقعات الطقس.

لتغيير الخارطة: اضغط على الأزرار الخضراء مع رمز الصليب الأسود للتكبير. على الزر الأخضر مع شرطة للتصغير، أو على الأسهم الخضراء للخرائط المجاورة.


METAR-TAF: